Flight Track Log - Related Links

Times and Time Zones

All times are in EDT time to prevent confusion due to time zone crossing. See the N53PB flight status page for this flight to view local times or setup timezone preferences in your user account.

Time Position Orientation Groundspeed Altitude Reporting Facility
EDT Latitude Longitude Course Direction KTS MPH feet Rate Location/Type
Wed 09:03:08 AM 42.3819 -85.2281 59° Northeast 95 109 4,500  Level Chicago Center
Wed 09:04:10 AM 42.3933 -85.1956 65° Northeast 95 109 5,200 484 Climbing Chicago Center
Wed 09:05:12 AM 42.4064 -85.1611 63° Northeast 99 114 5,500 145 Climbing Chicago Center
Wed 09:06:14 AM 42.4247 -85.1239 56° Northeast 112 129 5,500  Level Chicago Center
Wed 09:07:00 AM 42.4099 -85.0186 59° Northeast  Level Estimated
Wed 09:07:16 AM 42.4442 -85.0714 63° Northeast 126 145 5,500  Level Chicago Center
Wed 09:08:00 AM 42.4271 -84.9799 59° Northeast  Level Estimated
Wed 09:08:18 AM 42.4606 -85.0272 63° Northeast 129 148 5,500  Level Chicago Center
Wed 09:09:20 AM 42.4783 -84.9853 60° Northeast 129 148 5,500  Level Chicago Center
Wed 09:10:22 AM 42.4944 -84.9414 64° Northeast 130 150 5,500  Level Chicago Center
Wed 09:11:24 AM 42.5119 -84.9000 60° Northeast 128 147 5,500  Level Chicago Center
Wed 09:12:26 AM 42.5297 -84.8575 60° Northeast 129 148 5,500  Level Chicago Center
Wed 09:13:28 AM 42.5497 -84.8058 62° Northeast 129 148 5,500  Level Chicago Center
Wed 09:14:30 AM 42.5672 -84.7631 61° Northeast 130 150 5,500  Level Chicago Center
Wed 09:15:32 AM 42.5833 -84.7200 63° Northeast 129 148 5,500  Level Chicago Center
Wed 09:16:34 AM 42.6006 -84.6772 61° Northeast 129 148 5,500  Level Chicago Center
Wed 09:17:36 AM 42.6172 -84.6358 61° Northeast 126 145 5,500  Level Chicago Center
Wed 09:18:38 AM 42.6347 -84.5928 61° Northeast 128 147 5,500  Level Chicago Center
Wed 09:19:40 AM 42.6547 -84.5417 62° Northeast 129 148 5,500  Level Chicago Center
Wed 09:20:42 AM 42.6717 -84.5003 61° Northeast 128 147 5,500  Level Chicago Center

Login

Don't have an account? Register now (free) for customized features, flight alerts, and more!